Time;durP1;ratioP1;P1;durP2;ratioP2;P2;SDS_P1;SDS_P2;PMS_P1;PMS_P2;Temp;Humidity;BMP_temperature;BMP_pressure;BME280_temperature;BME280_humidity;BME280_pressure;Samples;Min_cycle;Max_cycle;Signal;HPM_P1;HPM_P2
2022/01/12 00:01:04;;;;;;;11.15;5.38;;;;;;;-2.79;55.95;93295.28;5034614;28;20059;-90
2022/01/12 00:03:30;;;;;;;13.30;5.68;;;;;;;-2.43;56.27;93358.50;4997157;28;20044;-91
2022/01/12 00:06:01;;;;;;;12.63;5.70;;;;;;;-2.48;56.75;93358.22;5013258;28;20056;-90
2022/01/12 00:08:29;;;;;;;11.40;5.38;;;;;;;-2.52;56.94;93352.69;5000284;28;20028;-89
2022/01/12 00:11:03;;;;;;;21.65;6.20;;;;;;;-2.76;56.77;93330.78;5012975;28;20025;-90
2022/01/12 00:13:35;;;;;;;12.35;6.60;;;;;;;-2.78;57.98;93326.84;5013380;28;20065;-90
2022/01/12 00:16:06;;;;;;;18.50;7.68;;;;;;;-2.57;57.65;93357.59;5013782;28;20160;-90
2022/01/12 00:18:35;;;;;;;19.27;6.57;;;;;;;-2.55;57.48;93362.50;5029495;28;20033;-90
2022/01/12 00:21:11;;;;;;;15.23;6.77;;;;;;;-2.74;57.65;93341.66;5032216;28;20037;-90
2022/01/12 00:23:40;;;;;;;14.38;7.25;;;;;;;-2.59;57.26;93363.84;5032499;28;20040;-89
2022/01/12 00:34:52;;;;;;;17.90;6.13;;;;;;;-2.61;58.15;93386.31;5015633;28;20092;-90
2022/01/12 00:37:18;;;;;;;16.83;6.20;;;;;;;-2.72;57.74;93375.59;4996593;28;20033;-90
2022/01/12 00:39:43;;;;;;;16.50;6.90;;;;;;;-2.68;57.97;93385.47;4980074;28;20041;-89
2022/01/12 00:42:13;;;;;;;13.00;5.18;;;;;;;-2.62;57.63;93400.91;4995737;28;20038;-90
2022/01/12 00:44:44;;;;;;;13.75;5.38;;;;;;;-2.73;56.69;93391.94;4996199;28;20099;-91
2022/01/12 00:47:17;;;;;;;14.80;6.03;;;;;;;-2.66;56.58;93404.81;5012708;28;20037;-89
2022/01/12 00:49:46;;;;;;;10.95;5.07;;;;;;;-2.61;56.33;93409.38;5006994;28;20033;-89
2022/01/12 00:52:17;;;;;;;14.05;5.00;;;;;;;-2.75;56.08;93387.97;4999748;28;20033;-90
2022/01/12 00:54:43;;;;;;;9.18;4.93;;;;;;;-3.05;57.11;93346.28;5015988;28;20051;-90
2022/01/12 00:57:11;;;;;;;10.38;4.30;;;;;;;-2.84;57.05;93383.94;5035027;28;20033;-90
2022/01/12 00:59:40;;;;;;;11.05;4.57;;;;;;;-2.89;57.71;93370.88;5002849;28;20524;-90
2022/01/12 01:02:10;;;;;;;11.70;5.25;;;;;;;-2.90;57.43;93380.34;5015695;28;20076;-89
2022/01/12 01:04:40;;;;;;;10.07;4.57;;;;;;;-2.67;57.58;93420.41;5015946;28;20048;-89
2022/01/12 01:07:13;;;;;;;14.60;5.07;;;;;;;-3.17;57.05;93349.31;5015896;28;20038;-89
2022/01/12 01:09:47;;;;;;;10.75;4.78;;;;;;;-2.85;57.51;93401.09;5015848;28;20037;-89
2022/01/12 01:12:14;;;;;;;12.48;4.85;;;;;;;-2.88;57.85;93406.59;5022320;28;20037;-90
2022/01/12 01:15:01;;;;;;;11.07;5.22;;;;;;;-3.25;58.32;93359.66;5018834;28;20068;-90
2022/01/12 01:25:55;;;;;;;12.32;4.80;;;;;;;-3.37;58.66;93363.69;5035199;28;20041;-89
2022/01/12 01:28:23;;;;;;;8.38;4.47;;;;;;;-3.10;59.03;93410.88;5019110;28;20057;-89
2022/01/12 01:30:55;;;;;;;11.15;4.32;;;;;;;-3.12;59.36;93412.03;5034628;28;20029;-90
2022/01/12 01:33:27;;;;;;;12.07;4.57;;;;;;;-3.28;58.66;93393.34;5018882;28;20119;-90
2022/01/12 01:36:03;;;;;;;8.75;4.35;;;;;;;-3.42;58.95;93378.78;5032398;28;20405;-89
2022/01/12 01:38:33;;;;;;;13.00;5.53;;;;;;;-3.15;59.09;93419.09;4999543;28;20042;-89
2022/01/12 01:41:09;;;;;;;15.27;5.13;;;;;;;-3.31;59.13;93393.69;5015532;28;20084;-90
2022/01/12 01:53:18;;;;;;;15.32;6.18;;;;;;;-3.07;59.33;93432.78;5016264;28;20045;-89
2022/01/12 01:55:10;;;;;;;10.52;4.72;;;;;;;-3.15;60.23;93426.00;5012925;28;20068;-90
2022/01/12 01:57:39;;;;;;;10.90;5.03;;;;;;;-3.08;59.56;93434.53;5015067;28;20040;-89
2022/01/12 02:00:12;;;;;;;10.55;4.63;;;;;;;-3.09;59.30;93434.72;5015021;28;20037;-89
2022/01/12 02:02:51;;;;;;;14.85;5.30;;;;;;;-3.16;59.07;93430.31;5016189;28;20037;-88
2022/01/12 02:05:17;;;;;;;12.50;4.93;;;;;;;-3.22;59.68;93420.78;5003619;28;20033;-90
2022/01/12 02:07:43;;;;;;;12.35;5.53;;;;;;;-3.25;59.38;93420.34;5014399;28;20376;-90
2022/01/12 02:10:12;;;;;;;13.07;5.78;;;;;;;-3.26;59.82;93429.81;5015129;28;20033;-90
2022/01/12 02:12:50;;;;;;;9.43;4.60;;;;;;;-3.60;59.86;93374.84;4999347;28;20511;-89
2022/01/12 02:15:20;;;;;;;8.88;4.78;;;;;;;-3.28;59.73;93420.72;5039333;28;20036;-89
2022/01/12 02:37:15;;;;;;;11.23;4.22;;;;;;;-3.03;60.32;93473.22;5019832;28;20044;-89
2022/01/12 02:39:53;;;;;;;11.05;4.88;;;;;;;-3.06;60.55;93472.78;4992360;28;20033;-89
2022/01/12 02:42:19;;;;;;;9.48;4.53;;;;;;;-3.09;60.71;93471.38;5034229;28;20087;-89
2022/01/12 02:50:43;;;;;;;11.80;4.47;;;;;;;-3.26;61.61;93454.63;5036596;28;20037;-89
2022/01/12 02:56:00;;;;;;;10.65;4.80;;;;;;;-3.26;61.74;93468.22;5032837;28;20041;-89
2022/01/12 02:58:26;;;;;;;11.77;4.43;;;;;;;-3.17;62.11;93482.50;5001692;28;20132;-89
2022/01/12 03:01:29;;;;;;;12.73;4.90;;;;;;;-3.35;62.04;93454.69;5015757;28;20051;-89
2022/01/12 03:03:53;;;;;;;7.63;4.18;;;;;;;-3.57;62.71;93412.88;5032355;28;20037;-89
2022/01/12 03:06:32;;;;;;;12.18;4.93;;;;;;;-3.39;61.96;93450.91;5033985;28;20029;-90
2022/01/12 03:09:01;;;;;;;11.00;4.93;;;;;;;-3.65;62.43;93401.91;5033833;28;20124;-89
2022/01/12 03:11:28;;;;;;;10.88;5.32;;;;;;;-3.38;62.39;93454.25;5017049;28;20029;-89
2022/01/12 03:14:06;;;;;;;9.48;4.72;;;;;;;-3.69;63.15;93408.34;5033054;28;20025;-89
2022/01/12 03:16:44;;;;;;;;;;;;;;;;;;;;;
2022/01/12 03:19:17;;;;;;;11.63;4.70;;;;;;;-3.77;63.90;93399.00;5013288;28;20045;-89
2022/01/12 03:21:56;;;;;;;12.88;4.68;;;;;;;-3.77;64.25;93414.38;5015440;28;20036;-90
2022/01/12 03:24:34;;;;;;;17.80;5.30;;;;;;;-3.49;63.79;93458.06;5013839;28;20122;-89
2022/01/12 03:27:03;;;;;;;9.63;4.93;;;;;;;-3.31;63.61;93492.75;4984902;28;20402;-89
2022/01/12 03:29:34;;;;;;;10.07;4.95;;;;;;;-3.78;63.44;93417.91;5017347;28;20024;-90
2022/01/12 03:32:02;;;;;;;11.75;5.00;;;;;;;-3.32;62.88;93499.63;5032731;28;20120;-89
2022/01/12 03:34:37;;;;;;;9.40;4.35;;;;;;;-3.48;63.35;93475.00;5033406;28;20056;-89
2022/01/12 03:39:48;;;;;;;6.80;3.97;;;;;;;-3.28;61.91;93511.13;5013743;28;20132;-89
2022/01/12 03:42:19;;;;;;;12.00;5.55;;;;;;;-3.27;62.30;93505.03;4981779;28;20100;-90
2022/01/12 03:44:47;;;;;;;8.93;4.47;;;;;;;-3.47;61.80;93486.03;4996943;28;20509;-88
2022/01/12 03:47:23;;;;;;;7.53;3.92;;;;;;;-3.61;61.66;93460.25;5003246;28;20033;-89
2022/01/12 03:49:49;;;;;;;7.95;4.07;;;;;;;-3.54;62.28;93480.81;5013615;28;20037;-89
2022/01/12 03:52:17;;;;;;;9.45;4.57;;;;;;;-3.65;61.72;93471.81;5012341;28;20037;-89
2022/01/12 03:54:44;;;;;;;9.05;4.38;;;;;;;-3.79;62.58;93449.56;4999895;28;20198;-89
2022/01/12 03:57:12;;;;;;;7.55;4.13;;;;;;;-3.34;61.57;93527.19;5032190;28;20568;-89
2022/01/12 03:59:43;;;;;;;7.88;4.10;;;;;;;-3.49;61.05;93491.34;5013150;28;20192;-89
2022/01/12 04:02:14;;;;;;;9.18;4.22;;;;;;;-3.78;60.84;93448.59;5015941;28;20040;-90
2022/01/12 04:05:06;;;;;;;8.80;4.00;;;;;;;-3.79;61.41;93460.59;5016354;28;20124;-90
2022/01/12 04:10:32;;;;;;;13.05;4.25;;;;;;;-3.80;61.83;93471.81;5032651;28;20059;-90
2022/01/12 04:13:08;;;;;;;13.30;4.80;;;;;;;-3.52;61.19;93498.56;5016927;28;20075;-89
2022/01/12 04:15:49;;;;;;;8.65;4.57;;;;;;;-3.63;62.14;93485.22;5017199;28;20135;-90
2022/01/12 04:18:24;;;;;;;10.93;4.82;;;;;;;-3.56;62.21;93509.16;5013000;28;20091;-89
2022/01/12 04:20:52;;;;;;;8.30;4.68;;;;;;;-3.58;62.00;93498.31;5006657;28;20033;-90
2022/01/12 04:23:23;;;;;;;10.18;4.80;;;;;;;-3.40;62.81;93531.25;5015779;28;20028;-89
2022/01/12 04:25:58;;;;;;;6.68;4.00;;;;;;;-3.90;62.50;93467.91;5017206;28;20036;-89
2022/01/12 04:28:39;;;;;;;11.32;4.65;;;;;;;-3.62;62.83;93520.09;5034147;28;20506;-89
2022/01/12 04:31:06;;;;;;;12.02;4.80;;;;;;;-3.64;63.31;93527.16;5031876;28;20047;-89
2022/01/12 04:33:35;;;;;;;10.73;4.13;;;;;;;-4.03;63.58;93471.84;5003661;28;20037;-90
2022/01/12 04:36:25;;;;;;;10.18;4.50;;;;;;;-3.70;63.71;93527.84;5037815;28;20502;-89
2022/01/12 04:38:53;;;;;;;12.60;4.32;;;;;;;-3.74;63.97;93523.25;5019683;28;20037;-88
2022/01/12 04:41:26;;;;;;;8.95;4.00;;;;;;;-3.74;63.07;93524.03;5019483;28;20071;-89
2022/01/12 04:43:56;;;;;;;11.32;4.90;;;;;;;-3.75;63.66;93525.00;5019539;28;20033;-89
2022/01/12 04:46:33;;;;;;;8.38;4.43;;;;;;;-4.05;63.21;93478.91;5035879;28;20123;-91
2022/01/12 04:49:24;;;;;;;9.27;5.22;;;;;;;-3.76;63.45;93528.53;5005543;28;20036;-89
2022/01/12 04:51:52;;;;;;;9.93;4.63;;;;;;;-4.06;63.40;93484.97;5019140;28;20555;-88
2022/01/12 04:54:25;;;;;;;15.57;4.75;;;;;;;-4.08;63.73;93484.34;5018039;28;20033;-89
2022/01/12 04:56:53;;;;;;;9.10;4.40;;;;;;;-3.79;63.64;93528.88;5019659;28;20041;-89
2022/01/12 04:59:21;;;;;;;10.32;4.47;;;;;;;-3.64;63.89;93550.19;4999135;28;20041;-90
2022/01/12 05:01:56;;;;;;;11.18;4.85;;;;;;;-3.73;64.19;93546.13;5000749;28;20490;-90
2022/01/12 05:07:28;;;;;;;9.27;4.82;;;;;;;-3.87;65.09;93526.38;5002481;28;20055;-90
2022/01/12 05:12:48;;;;;;;8.93;4.10;;;;;;;-3.70;64.23;93561.09;5000787;28;20056;-90
2022/01/12 05:13:01;;;;;;;7.15;3.58;;;;;;;-4.14;63.92;93500.41;5028310;28;20494;-89
2022/01/12 05:15:36;;;;;;;9.35;4.25;;;;;;;-3.79;63.69;93554.47;5025358;28;20037;-90
2022/01/12 05:18:03;;;;;;;7.70;3.83;;;;;;;-3.83;64.35;93558.34;5026976;28;20146;-90
2022/01/12 05:20:31;;;;;;;8.52;4.07;;;;;;;-4.21;64.77;93495.16;5022713;28;20037;-89
2022/01/12 05:23:07;;;;;;;8.00;4.22;;;;;;;-4.01;64.38;93528.75;5021084;28;20132;-89
2022/01/12 05:25:38;;;;;;;11.05;4.53;;;;;;;-4.15;64.88;93534.59;5001422;28;20049;-88
2022/01/12 05:28:21;;;;;;;9.32;4.63;;;;;;;-4.23;65.33;93516.78;5006271;28;20496;-89
2022/01/12 05:30:56;;;;;;;;;;;;;;;-3.79;65.20;93592.84;5018448;28;20103;-89
2022/01/12 05:33:29;;;;;;;10.73;4.18;;;;;;;-4.28;65.54;93521.56;5037468;28;19921;-88
2022/01/12 05:36:16;;;;;;;8.27;4.45;;;;;;;-4.34;65.18;93515.41;5001045;28;20056;-89
2022/01/12 05:38:46;;;;;;;9.40;4.33;;;;;;;-3.99;65.29;93570.28;4999568;28;20120;-90
2022/01/12 05:41:11;;;;;;;11.38;4.78;;;;;;;-4.02;65.67;93569.84;5012552;28;20102;-89
2022/01/12 05:43:45;;;;;;;10.57;4.25;;;;;;;-4.32;65.32;93535.66;4992675;28;20036;-88
2022/01/12 05:46:17;;;;;;;8.40;4.03;;;;;;;-4.04;65.43;93574.31;5001742;28;20087;-91
2022/01/12 05:51:53;;;;;;;9.43;4.32;;;;;;;-4.34;65.66;93528.19;5027842;28;20056;-90
2022/01/12 05:54:22;;;;;;;8.38;4.63;;;;;;;-4.06;65.66;93574.50;5017357;28;20565;-90
2022/01/12 05:56:51;;;;;;;7.47;3.92;;;;;;;-4.05;66.06;93573.53;5034038;28;20041;-90
2022/01/12 05:59:18;;;;;;;12.30;5.30;;;;;;;-4.03;65.10;93579.28;5016657;28;20045;-91
2022/01/12 06:01:47;;;;;;;10.65;4.35;;;;;;;-4.28;65.11;93547.13;5014812;28;20565;-90
2022/01/12 06:04:17;;;;;;;16.60;4.82;;;;;;;-4.37;65.34;93530.25;5036448;28;20083;-90
2022/01/12 06:06:48;;;;;;;7.30;4.50;;;;;;;-4.33;65.83;93539.97;5019799;28;20063;-91
2022/01/12 06:09:35;;;;;;;14.60;6.30;;;;;;;-4.33;65.83;93541.75;5036104;28;20041;-90
2022/01/12 06:12:11;;;;;;;12.07;5.43;;;;;;;-4.06;66.10;93586.47;5037108;28;20041;-90
2022/01/12 06:14:45;;;;;;;15.75;5.68;;;;;;;-4.04;65.89;93598.13;5036645;28;20513;-90
2022/01/12 06:17:20;;;;;;;13.68;5.15;;;;;;;-4.33;66.15;93552.75;5036370;28;20040;-91
2022/01/12 06:19:50;;;;;;;11.40;5.07;;;;;;;-4.04;65.89;93592.22;5004923;28;20099;-90
2022/01/12 06:22:29;;;;;;;7.75;4.00;;;;;;;-4.21;66.20;93571.06;5021686;28;20075;-90
2022/01/12 06:24:57;;;;;;;9.57;5.25;;;;;;;-4.36;66.03;93549.78;5003697;28;20041;-90
2022/01/12 06:27:27;;;;;;;11.75;5.20;;;;;;;-4.18;66.01;93588.66;5019412;28;20029;-90
2022/01/12 06:31:10;;;;;;;9.77;4.50;;;;;;;-4.39;66.49;93563.66;5016732;28;20045;-91
2022/01/12 06:32:53;;;;;;;9.27;5.05;;;;;;;-4.21;66.45;93596.63;5002869;28;20136;-91
2022/01/12 06:35:18;;;;;;;9.68;4.80;;;;;;;-4.19;66.61;93607.50;5016028;28;20034;-91
2022/01/12 06:37:45;;;;;;;11.48;5.25;;;;;;;-4.48;66.63;93567.22;5025763;28;20578;-90
2022/01/12 06:40:16;;;;;;;9.52;5.13;;;;;;;-4.13;66.63;93629.06;5019357;28;20805;-90
2022/01/12 06:42:45;;;;;;;9.05;4.03;;;;;;;-4.51;66.22;93570.91;5035849;28;20040;-89
2022/01/12 06:45:16;;;;;;;10.82;4.45;;;;;;;-4.27;66.46;93602.44;5035793;28;20056;-90
2022/01/12 06:47:47;;;;;;;11.02;5.15;;;;;;;-4.45;66.73;93582.25;5019542;28;20076;-91
2022/01/12 06:50:13;;;;;;;12.07;5.28;;;;;;;-4.24;66.23;93618.22;5027748;28;20127;-90
2022/01/12 06:52:41;;;;;;;12.23;4.90;;;;;;;-4.22;66.12;93625.75;5048131;28;20452;-90
2022/01/12 06:55:07;;;;;;;9.32;4.28;;;;;;;-4.54;65.78;93578.94;5017640;28;20063;-90
2022/01/12 06:57:33;;;;;;;10.68;5.60;;;;;;;-4.22;66.03;93631.63;5034749;28;20124;-91
2022/01/12 07:00:01;;;;;;;22.42;7.55;;;;;;;-4.25;65.98;93631.19;5019206;28;20428;-90
2022/01/12 07:02:29;;;;;;;16.38;6.95;;;;;;;-4.43;65.93;93600.75;5035025;28;20103;-90
2022/01/12 07:05:07;;;;;;;21.38;6.43;;;;;;;-4.37;66.24;93612.06;5035556;28;20049;-89
2022/01/12 07:07:38;;;;;;;11.25;5.40;;;;;;;-4.49;66.31;93591.19;5029380;28;20088;-91
2022/01/12 07:10:34;;;;;;;12.05;5.60;;;;;;;-4.20;66.07;93641.72;5038222;28;20049;-90
2022/01/12 07:13:13;;;;;;;13.80;5.40;;;;;;;-4.38;66.00;93605.38;5035507;28;20430;-90
2022/01/12 07:15:45;;;;;;;13.15;4.43;;;;;;;-4.09;65.96;93643.88;5035755;28;20111;-91
2022/01/12 07:18:15;;;;;;;10.52;4.85;;;;;;;-4.20;65.38;93619.50;5018831;28;20489;-90
2022/01/12 07:20:41;;;;;;;11.75;4.82;;;;;;;-4.04;65.20;93635.72;5018132;28;20399;-91
2022/01/12 07:23:12;;;;;;;8.85;4.25;;;;;;;-4.14;65.00;93609.53;5035470;28;20064;-90
2022/01/12 07:25:45;;;;;;;11.77;4.78;;;;;;;-4.10;64.78;93598.00;5018597;28;20064;-91
2022/01/12 07:28:21;;;;;;;8.85;4.38;;;;;;;-3.41;63.59;93656.88;5019539;28;20041;-90
2022/01/12 07:30:47;;;;;;;7.82;4.05;;;;;;;-1.92;60.10;93603.81;5035126;28;20079;-91
2022/01/12 07:33:25;;;;;;;10.05;4.05;;;;;;;1.01;52.25;93616.31;5019079;28;20402;-91
2022/01/12 07:36:05;;;;;;;;;;;;;;;;;;;;;
2022/01/12 07:38:55;;;;;;;11.13;4.65;;;;;;;5.48;41.66;93630.47;5052454;28;20490;-91
2022/01/12 07:41:34;;;;;;;12.52;5.07;;;;;;;7.33;37.20;93658.94;5018871;28;20482;-92
2022/01/12 07:44:07;;;;;;;10.05;5.05;;;;;;;8.61;34.65;93665.09;5018420;28;20037;-92
2022/01/12 07:46:46;;;;;;;9.48;4.60;;;;;;;9.50;31.94;93630.63;5018724;28;20045;-91
2022/01/12 07:49:15;;;;;;;11.20;4.68;;;;;;;10.67;30.07;93634.06;5035006;28;20560;-93
2022/01/12 07:51:45;;;;;;;12.02;5.07;;;;;;;11.94;28.08;93650.94;5015179;28;20029;-92
2022/01/12 07:54:17;;;;;;;10.95;4.57;;;;;;;12.49;26.77;93615.03;5015474;28;20042;-92
2022/01/12 07:56:48;;;;;;;13.63;4.97;;;;;;;13.35;25.93;93633.97;5020349;28;20045;-91
2022/01/12 07:59:25;;;;;;;9.48;5.05;;;;;;;14.19;24.22;93652.19;5031930;28;20036;-91
2022/01/12 08:02:09;;;;;;;;;;;;;;;;;;;;;
2022/01/12 08:04:55;;;;;;;;;;;;;;;;;;;;;
2022/01/12 08:07:39;;;;;;;;;;;;;;;;;;;;;
2022/01/12 08:10:16;;;;;;;12.10;5.65;;;;;;;16.37;20.36;93635.31;5024872;28;20049;-92
2022/01/12 08:13:02;;;;;;;11.27;5.40;;;;;;;16.66;19.82;93642.13;5040971;28;20033;-91
2022/01/12 08:15:38;;;;;;;10.48;5.53;;;;;;;17.54;18.96;93676.28;5039492;28;20143;-92
2022/01/12 08:18:33;;;;;;;11.50;5.50;;;;;;;17.73;18.80;93630.28;5024831;28;20076;-91
2022/01/12 08:21:03;;;;;;;12.65;5.70;;;;;;;18.78;18.00;93656.22;5023829;28;20086;-91
2022/01/12 08:23:29;;;;;;;8.85;5.28;;;;;;;19.19;17.17;93641.75;5019583;28;20030;-92
2022/01/12 08:26:14;;;;;;;17.50;6.32;;;;;;;20.12;16.74;93680.28;5045409;28;20036;-92
2022/01/12 08:28:53;;;;;;;10.88;5.43;;;;;;;20.74;16.22;93670.28;5026133;28;20048;-92
2022/01/12 08:31:22;;;;;;;12.80;6.68;;;;;;;21.16;15.56;93649.03;5042190;28;20060;-92
2022/01/12 08:34:13;;;;;;;13.73;6.32;;;;;;;21.35;14.90;93681.31;5048039;28;20024;-91
2022/01/12 08:36:51;;;;;;;10.80;6.30;;;;;;;21.45;15.28;93650.88;5025844;28;20059;-92
2022/01/12 08:39:25;;;;;;;13.80;6.20;;;;;;;22.10;15.01;93695.78;5038279;28;20037;-92
2022/01/12 08:42:13;;;;;;;10.90;6.20;;;;;;;22.53;14.19;93679.34;5006689;28;20532;-92
2022/01/12 08:44:42;;;;;;;11.25;6.32;;;;;;;22.68;14.13;93666.47;5022483;28;20044;-91
2022/01/12 08:47:29;;;;;;;14.25;6.50;;;;;;;21.31;14.46;93658.34;5056122;28;20183;-92
2022/01/12 08:50:08;;;;;;;12.95;6.72;;;;;;;20.88;15.48;93712.63;5056230;28;20033;-91
2022/01/12 08:52:43;;;;;;;14.75;6.40;;;;;;;20.33;15.41;93676.94;5021924;28;20041;-92
2022/01/12 08:55:24;;;;;;;12.02;6.68;;;;;;;20.11;16.25;93707.22;5038194;28;20041;-92
2022/01/12 08:57:56;;;;;;;13.30;6.40;;;;;;;21.57;14.66;93652.81;5056167;28;20037;-91
2022/01/12 09:00:35;;;;;;;13.20;7.07;;;;;;;21.39;15.04;93687.56;5021140;28;20044;-92
2022/01/12 09:03:12;;;;;;;13.60;6.95;;;;;;;19.89;15.94;93692.22;5007662;28;20048;-91
2022/01/12 09:05:53;;;;;;;16.17;6.85;;;;;;;19.88;15.93;93661.44;5055572;28;20055;-91
2022/01/12 09:08:21;;;;;;;12.88;6.53;;;;;;;19.71;15.88;93657.69;5037473;28;20047;-91
2022/01/12 09:10:50;;;;;;;19.30;6.93;;;;;;;19.24;16.94;93701.88;5037763;28;20079;-91
2022/01/12 09:13:23;;;;;;;13.38;7.22;;;;;;;16.47;19.55;93692.47;5037883;28;20032;-92
2022/01/12 09:16:00;;;;;;;12.05;6.72;;;;;;;14.90;21.33;93684.84;5021172;28;20375;-91
2022/01/12 09:18:28;;;;;;;18.38;7.78;;;;;;;14.45;23.14;93713.28;5036522;28;20084;-91
2022/01/12 09:20:59;;;;;;;16.42;7.38;;;;;;;13.84;22.48;93683.03;5038182;28;20047;-90
2022/01/12 09:23:30;;;;;;;16.00;7.07;;;;;;;13.32;23.31;93676.63;5021646;28;20061;-91
2022/01/12 09:25:59;;;;;;;15.10;7.25;;;;;;;13.04;24.44;93670.22;5054800;28;20104;-91
2022/01/12 09:28:39;;;;;;;13.80;7.72;;;;;;;13.27;24.17;93722.09;5020648;28;20028;-91
2022/01/12 09:31:12;;;;;;;15.18;7.60;;;;;;;13.08;24.33;93682.53;5021297;28;20041;-91
2022/01/12 09:33:45;;;;;;;16.48;7.75;;;;;;;12.77;24.58;93684.53;5020662;28;20072;-91
2022/01/12 09:36:15;;;;;;;15.35;7.18;;;;;;;13.01;24.42;93674.13;5021329;28;20056;-90
2022/01/12 09:38:49;;;;;;;14.63;6.93;;;;;;;12.81;25.18;93726.81;5037023;28;20041;-91
2022/01/12 09:41:24;;;;;;;15.38;8.00;;;;;;;11.31;27.26;93698.41;5038429;28;20083;-91
2022/01/12 09:43:57;;;;;;;13.45;7.57;;;;;;;11.01;27.71;93711.19;5024032;28;20486;-91
2022/01/12 09:46:25;;;;;;;16.67;7.03;;;;;;;10.35;29.22;93722.16;5020472;28;20037;-90
2022/01/12 09:48:56;;;;;;;16.70;7.30;;;;;;;10.34;29.24;93717.22;5020859;28;20033;-91
2022/01/12 09:51:29;;;;;;;21.50;6.97;;;;;;;11.88;26.19;93710.50;5037224;28;20040;-91
2022/01/12 09:54:14;;;;;;;15.25;7.50;;;;;;;10.35;28.42;93690.75;5038479;28;20037;-91
2022/01/12 09:56:50;;;;;;;19.30;7.88;;;;;;;11.22;28.39;93761.03;5020252;28;20071;-93
2022/01/12 09:59:36;;;;;;;13.38;6.68;;;;;;;11.08;27.63;93697.03;5006337;28;20047;-91
2022/01/12 10:02:19;;;;;;;20.88;7.28;;;;;;;11.19;27.60;93696.81;5035686;28;20052;-88
2022/01/12 10:05:00;;;;;;;13.38;6.72;;;;;;;10.09;28.66;93707.38;5019522;28;20037;-89
2022/01/12 10:07:29;;;;;;;15.73;7.32;;;;;;;10.53;29.29;93765.47;5020310;28;20044;-89
2022/01/12 10:10:32;;;;;;;;;;;;;;;;;;;;;
2022/01/12 10:12:58;;;;;;;12.50;5.65;;;;;;;7.40;33.48;93705.66;5035606;28;20037;-91
2022/01/12 10:15:39;;;;;;;16.95;6.35;;;;;;;7.34;34.61;93702.22;5054120;28;20029;-89
2022/01/12 10:18:10;;;;;;;16.02;6.32;;;;;;;6.80;35.32;93697.38;4987711;28;20048;-89
2022/01/12 10:21:03;;;;;;;17.70;6.75;;;;;;;6.66;35.96;93696.88;5018961;28;20044;-88
2022/01/12 10:23:38;;;;;;;12.35;5.13;;;;;;;6.40;36.95;93739.81;5003302;28;20134;-92
2022/01/12 10:26:13;;;;;;;16.25;7.13;;;;;;;6.72;36.65;93744.59;5019208;28;20055;-89
2022/01/12 10:28:54;;;;;;;13.48;6.47;;;;;;;7.12;34.87;93696.88;5018690;28;20401;-92
2022/01/12 10:31:24;;;;;;;11.38;5.85;;;;;;;7.33;34.24;93733.69;4984689;28;20049;-91
2022/01/12 10:34:24;;;;;;;19.85;7.28;;;;;;;7.28;33.30;93677.88;5014500;28;20034;-91
2022/01/12 10:36:57;;;;;;;11.85;5.63;;;;;;;6.61;35.65;93668.13;5032062;28;20060;-91
2022/01/12 10:39:37;;;;;;;13.25;5.30;;;;;;;6.53;35.23;93675.50;5018988;28;20029;-90
2022/01/12 10:42:17;;;;;;;13.25;6.07;;;;;;;6.87;34.48;93674.59;5033181;28;20037;-90
2022/01/12 10:45:04;;;;;;;15.15;6.82;;;;;;;7.09;32.83;93710.38;5025033;28;20029;-91
2022/01/12 10:47:35;;;;;;;19.10;6.65;;;;;;;7.30;32.74;93680.25;5013630;28;20072;-92
2022/01/12 10:50:13;;;;;;;12.10;4.43;;;;;;;6.94;33.38;93686.69;5032856;28;20040;-91
2022/01/12 10:53:26;;;;;;;13.07;5.22;;;;;;;7.59;29.67;93727.88;5033339;28;20040;-90
2022/01/12 10:56:16;;;;;;;8.20;3.90;;;;;;;7.07;32.65;93692.38;5051218;28;20116;-92
2022/01/12 10:58:51;;;;;;;9.88;5.07;;;;;;;7.30;30.56;93699.28;4999253;28;20049;-91
2022/01/12 11:01:25;;;;;;;12.70;5.50;;;;;;;7.37;30.41;93690.53;5026300;28;20056;-91
2022/01/12 11:04:02;;;;;;;8.95;4.38;;;;;;;7.38;30.49;93715.53;5029440;28;20026;-92
2022/01/12 11:06:33;;;;;;;7.60;3.90;;;;;;;5.71;38.15;93676.44;5051366;28;20049;-91
2022/01/12 11:09:21;;;;;;;21.95;7.15;;;;;;;5.82;39.77;93736.19;5051974;28;20175;-90
2022/01/12 11:11:49;;;;;;;14.20;6.10;;;;;;;5.97;37.84;93725.38;4994547;28;20136;-90
2022/01/12 11:14:25;;;;;;;20.80;7.00;;;;;;;6.04;36.76;93679.25;5013337;28;20034;-91
2022/01/12 11:16:58;;;;;;;11.55;5.20;;;;;;;6.64;32.74;93672.91;4999550;28;20546;-90
2022/01/12 11:19:34;;;;;;;15.75;5.75;;;;;;;6.84;33.26;93708.88;5034564;28;20040;-91
2022/01/12 11:22:32;;;;;;;12.30;4.63;;;;;;;6.93;33.27;93739.75;5017600;28;20044;-90
2022/01/12 11:25:03;;;;;;;9.45;4.90;;;;;;;6.73;31.91;93707.13;5054138;28;20478;-90
2022/01/12 11:27:43;;;;;;;10.98;5.85;;;;;;;6.34;36.26;93686.09;5036952;28;20475;-91
2022/01/12 11:30:25;;;;;;;14.20;5.70;;;;;;;5.88;35.87;93671.31;5038336;28;20037;-90
2022/01/12 11:33:03;;;;;;;16.70;6.63;;;;;;;6.13;36.75;93720.50;5019215;28;20033;-90
2022/01/12 11:35:42;;;;;;;5.40;3.22;;;;;;;6.32;35.58;93737.53;5041485;28;20029;-90
2022/01/12 11:38:29;;;;;;;7.05;3.33;;;;;;;5.60;35.34;93685.81;5035814;28;20349;-90
2022/01/12 11:41:20;;;;;;;15.35;5.05;;;;;;;6.22;34.38;93688.72;4985805;28;20073;-91
2022/01/12 11:51:44;;;;;;;14.13;6.20;;;;;;;6.46;38.56;93754.50;4988584;23;20407;-72
2022/01/12 11:54:15;;;;;;;11.05;5.47;;;;;;;6.29;39.30;93753.63;5029189;28;20045;-73
2022/01/12 11:56:56;;;;;;;12.88;6.28;;;;;;;6.82;38.17;93752.59;5029211;28;20034;-72
2022/01/12 11:59:24;;;;;;;16.25;6.95;;;;;;;6.99;37.57;93751.84;5012120;28;20037;-72
2022/01/12 12:01:52;;;;;;;10.73;5.18;;;;;;;6.25;38.40;93762.88;5043095;28;20060;-72
2022/01/12 12:04:29;;;;;;;12.57;6.45;;;;;;;6.29;38.61;93761.41;5049367;28;20036;-72
2022/01/12 12:07:25;;;;;;;21.02;7.78;;;;;;;6.62;38.57;93753.00;5032032;28;20045;-72
2022/01/12 12:09:56;;;;;;;14.98;6.05;;;;;;;7.06;37.32;93742.88;5029789;28;20071;-72
2022/01/12 12:12:30;;;;;;;15.82;6.68;;;;;;;6.87;37.83;93751.91;5049276;28;20033;-72
2022/01/12 12:14:58;;;;;;;8.30;4.47;;;;;;;6.64;37.33;93750.13;5011435;28;20410;-72
2022/01/12 12:17:26;;;;;;;15.23;7.20;;;;;;;6.60;37.62;93749.03;5049395;28;20094;-73
2022/01/12 12:19:54;;;;;;;15.18;6.18;;;;;;;6.12;38.87;93755.31;5003765;28;20049;-72
2022/01/12 12:22:20;;;;;;;21.50;6.85;;;;;;;6.15;37.46;93747.09;5027972;28;20482;-72
2022/01/12 12:24:53;;;;;;;13.43;5.90;;;;;;;6.13;38.07;93743.91;5025386;28;20091;-73
2022/01/12 12:27:21;;;;;;;16.83;7.13;;;;;;;6.28;38.04;93746.81;5036638;28;20560;-73
2022/01/12 12:29:49;;;;;;;19.48;7.15;;;;;;;6.68;36.69;93740.84;5044705;28;20470;-73
2022/01/12 12:32:16;;;;;;;19.15;6.25;;;;;;;7.16;37.06;93738.88;5031979;28;20040;-73
2022/01/12 12:34:43;;;;;;;20.55;7.63;;;;;;;6.74;37.06;93728.75;5030938;28;20543;-73
2022/01/12 12:37:11;;;;;;;19.77;6.95;;;;;;;6.64;37.25;93729.31;5031231;28;20071;-73
2022/01/12 12:39:43;;;;;;;16.20;6.68;;;;;;;6.40;37.98;93720.81;5049275;28;20033;-73
2022/01/12 12:42:20;;;;;;;12.77;6.85;;;;;;;6.98;37.16;93724.22;5049317;28;20107;-73
2022/01/12 12:44:48;;;;;;;9.40;5.30;;;;;;;6.77;37.61;93713.44;5069021;28;20029;-73
2022/01/12 12:47:20;;;;;;;19.33;7.13;;;;;;;6.61;38.55;93709.75;5068235;28;20028;-73
2022/01/12 12:49:47;;;;;;;14.95;6.88;;;;;;;6.07;39.31;93713.63;5050161;28;20052;-73
2022/01/12 12:52:21;;;;;;;15.43;5.65;;;;;;;6.21;39.05;93710.56;5069045;28;20075;-73
2022/01/12 12:54:46;;;;;;;16.17;6.97;;;;;;;6.49;39.19;93716.03;5052881;28;20102;-73
2022/01/12 12:57:12;;;;;;;14.27;6.63;;;;;;;6.42;38.37;93696.16;5062467;28;20458;-74
2022/01/12 12:59:38;;;;;;;13.93;6.38;;;;;;;7.38;37.45;93708.50;5072927;28;20068;-73
2022/01/12 13:02:12;;;;;;;14.55;6.75;;;;;;;7.35;36.86;93709.00;5067262;28;20034;-73
2022/01/12 13:04:39;;;;;;;14.23;6.43;;;;;;;7.24;37.33;93704.63;5053694;28;20064;-73
2022/01/12 13:07:17;;;;;;;13.02;5.57;;;;;;;7.23;36.48;93703.84;5054481;28;20055;-74
2022/01/12 13:09:45;;;;;;;12.20;5.65;;;;;;;6.93;37.53;93701.50;5072798;28;20063;-73
2022/01/12 13:12:11;;;;;;;14.50;5.38;;;;;;;7.24;36.80;93696.81;5072231;28;20405;-73
2022/01/12 13:14:45;;;;;;;6.57;3.72;;;;;;;6.94;37.14;93708.28;5072039;28;20061;-75
2022/01/12 13:17:10;;;;;;;14.70;6.78;;;;;;;7.00;36.99;93704.78;5054022;28;20063;-73
2022/01/12 13:22:32;;;;;;;23.85;7.10;;;;;;;6.52;38.27;93694.75;5072664;28;20102;-72
2022/01/12 13:24:59;;;;;;;17.60;7.55;;;;;;;6.61;38.59;93696.75;5073016;28;20410;-73